EDDMEDJA

Guest
Details From EDDM - Muenchen Franz-Josef Strauss
To EDJA - MEMMINGEN ALLGAU
Flight Number -
Tags decoded
Created
Modified
Stats Distance 66 nm / 122 km
Max Altitude 0 ft / 0 m
Waypoints 5
Social Downloads 3
Likes 0
Share VATSIM

Download

Looking for another format? Having issues loading an existing format? Contact us
Advertisement - Login to hide

Notes

Requested: EDDM MAH AMEXO ALG EDJA

Route

EDDM MAH AMEXO ALG EDJA

ID Type Via Altitude Latitude Longitude Leg Dist Tot Dist Heading (true) Name
O EDDM APT - 0 ft / 0 m 48.35379˚ 11.78612˚ - 0 nm - Muenchen Franz-Josef Strauss
MAH VOR - 0 ft / 0 m 48.26343˚ 11.31193˚ 19 nm 19 nm 254° / 254° MAISACH VOR-DME
AMEXO FIX - 0 ft / 0 m 48.10167˚ 10.80333˚ 22 nm 42 nm 245° / 244° -
ALG NDB - 0 ft / 0 m 47.99740˚ 10.26220˚ 22 nm 64 nm 254° / 254° ALLGAU NDB
O EDJA APT - 0 ft / 0 m 47.98876˚ 10.23950˚ 1 nm 65 nm 240° / 240° MEMMINGEN ALLGAU

Altitude Profile

Advertisement - Login to hide

EDDM

Details ICAO EDDM (MUC)
Name Muenchen Franz-Josef Strauss
Region Germany - Civil
Timezone Europe/Berlin (UTC+2.0)
Stats Elevation 1,487 ft / 453 m (AMSL)
Location 48.353786° 11.786117°
Runways 2
Magnetic Variation 3.214° E

METAR

EDDM 221020Z 05008KT 020V100 9999 FEW025 BKN290 21/12 Q1013 NOSIG

Decode

TAF

TAF EDDM 220500Z 2206/2312 VRB03KT CAVOK BECMG 2207/2209 06007KT BECMG 2218/2220 VRB03KT PROB30 TEMPO 2218/2221 24015G25KT TSRA BKN040CB TEMPO 2303/2306 27005KT

Decode

Departure Runways

ID Width Length Bearing (true) Bearing (mag) Surface Threshold Offset Overrun Length
08L 197 ft / 60 m 13,086 ft / 3,989 m 83.38° 80.17° Concrete 0 ft / 0 m 0 ft / 0 m
08R 197 ft / 60 m 13,086 ft / 3,989 m 83.37° 80.16° Concrete 0 ft / 0 m 0 ft / 0 m
26L 197 ft / 60 m 13,086 ft / 3,989 m 263.41° 260.20° Concrete 0 ft / 0 m 0 ft / 0 m
26R 197 ft / 60 m 13,086 ft / 3,989 m 263.42° 260.21° Concrete 0 ft / 0 m 0 ft / 0 m

EDJA

Details ICAO EDJA (FMM)
Name MEMMINGEN ALLGAU
Region Germany - Civil
Timezone Europe/Berlin (UTC+2.0)
Stats Elevation 2,077 ft / 633 m (AMSL)
Location 47.988757° 10.239502°
Runways 1
Magnetic Variation 2.825° E

METAR

EDJA 221020Z VRB03KT CAVOK 21/13 Q1013

Decode

TAF

Not found

Destination Runways

ID Width Length Bearing (true) Bearing (mag) Surface Threshold Offset Overrun Length
06 98 ft / 30 m 9,762 ft / 2,975 m 57.91° 55.09° Asphalt 953 ft / 290 m 0 ft / 0 m
24 98 ft / 30 m 9,762 ft / 2,975 m 237.94° 235.12° Asphalt 953 ft / 290 m 0 ft / 0 m

Approach Navaids

Runway Type Ident Frequency Range Bearing (true) Bearing (mag) Slope Elevation
24 Localiser IAMW 110.10 MHz 18 nm / 33 km 239.25° 236.43° - 0 ft / 0 m (AMSL)
24 Glidescope IAMW 110.10 MHz 18 nm / 33 km 237.44° 234.61° 3.00° 2,050 ft / 625 m (AMSL)
24 DME IAMW 110.10 MHz 25 nm / 46 km - - - 2,064 ft / 629 m (AMSL)

Popular Alternatives